This is the latest recevied weather packets stored in our database for station/object N9ALD. If no packets are shown the sender has not sent any weather packets the latest 10 day(s).
| Time | Temp. | Humidity | Pressure | Rain* | Wind** | Luminosity | Snow |
|---|---|---|---|---|---|---|---|
| 1777592322 | 14.44° C | 51% | 1011.1 hPa | 0 mm | - | 59 W/m² | - |
| 1777592018 | 14.44° C | 52% | 1010.9 hPa | 0 mm | - | 55 W/m² | - |
| 1777591715 | 14.44° C | 47% | 1011 hPa | 0 mm | - | 50 W/m² | - |
| 1777591410 | 15° C | 46% | 1011 hPa | 0 mm | - | 47 W/m² | - |
| 1777591106 | 15° C | 49% | 1011.1 hPa | 0 mm | - | 80 W/m² | - |
| 1777590802 | 14.44° C | 48% | 1011 hPa | 0 mm | - | 81 W/m² | - |
| 1777590498 | 15° C | 47% | 1011.2 hPa | 0 mm | - | 85 W/m² | - |
| 1777590195 | 15° C | 46% | 1011.3 hPa | 0 mm | - | 62 W/m² | - |
| 1777589892 | 15.56° C | 44% | 1011.2 hPa | 0 mm | - | 58 W/m² | - |
| 1777589588 | 15.56° C | 43% | 1011.5 hPa | 0 mm | - | 75 W/m² | - |
| 1777589285 | 16.11° C | 44% | 1011.3 hPa | 0 mm | - | 103 W/m² | - |
| 1777588983 | 16.67° C | 41% | 1011.5 hPa | 0 mm | - | 124 W/m² | - |
| 1777588678 | 16.67° C | 39% | 1011.7 hPa | 0 mm | - | 142 W/m² | - |
| 1777588374 | 16.67° C | 40% | 1011.7 hPa | 0 mm | - | 274 W/m² | - |
| 1777588070 | 16.67° C | 39% | 1011.5 hPa | 0 mm | - | 156 W/m² | - |
| 1777587766 | 16.67° C | 40% | 1011.7 hPa | 0 mm | - | 285 W/m² | - |
| 1777587465 | 16.67° C | 42% | 1011.7 hPa | 0 mm | - | 262 W/m² | - |
| 1777587162 | 17.78° C | 40% | 1011.5 hPa | 0 mm | - | 173 W/m² | - |
| 1777586857 | 17.22° C | 39% | 1011.7 hPa | 0 mm | - | 310 W/m² | - |
| 1777586553 | 16.11° C | 44% | 1011.9 hPa | 0 mm | - | 371 W/m² | - |
| 1777586249 | 15.56° C | 41% | 1011.9 hPa | 0 mm | - | 268 W/m² | - |
| 1777585947 | 15.56° C | 44% | 1011.8 hPa | 0 mm | - | 160 W/m² | - |
| 1777585642 | 16.11° C | 39% | 1011.7 hPa | 0 mm | - | 121 W/m² | - |
| 1777585337 | 16.11° C | 45% | 1011.9 hPa | 0 mm | - | 198 W/m² | - |
| 1777585032 | 15.56° C | 41% | 1012 hPa | 0 mm | - | 239 W/m² | - |
* Rain latest hour (hover to see other rain measurements)
** Current wind speed in m/s (hover to see current wind gust speed)